sensor_id;sensor_type;location;lat;lon;timestamp;P1;durP1;ratioP1;P2;durP2;ratioP2
10144;SDS011;5113;41.822;23.564;2023-04-03T00:01:36;8.77;;;5.93;;
10144;SDS011;5113;41.822;23.564;2023-04-03T00:04:42;9.60;;;6.23;;
10144;SDS011;5113;41.822;23.564;2023-04-03T00:07:49;11.47;;;7.27;;
10144;SDS011;5113;41.822;23.564;2023-04-03T00:10:55;13.10;;;6.90;;
10144;SDS011;5113;41.822;23.564;2023-04-03T00:14:03;12.13;;;6.43;;
10144;SDS011;5113;41.822;23.564;2023-04-03T00:17:09;8.57;;;7.33;;
10144;SDS011;5113;41.822;23.564;2023-04-03T00:20:15;10.57;;;6.57;;
10144;SDS011;5113;41.822;23.564;2023-04-03T00:23:21;10.70;;;6.47;;
10144;SDS011;5113;41.822;23.564;2023-04-03T00:26:28;11.30;;;6.57;;
10144;SDS011;5113;41.822;23.564;2023-04-03T00:29:36;17.10;;;9.17;;
10144;SDS011;5113;41.822;23.564;2023-04-03T00:32:42;38.53;;;23.17;;
10144;SDS011;5113;41.822;23.564;2023-04-03T00:35:49;23.80;;;14.17;;
10144;SDS011;5113;41.822;23.564;2023-04-03T00:38:56;22.77;;;12.37;;
10144;SDS011;5113;41.822;23.564;2023-04-03T00:42:02;22.50;;;15.53;;
10144;SDS011;5113;41.822;23.564;2023-04-03T00:45:30;16.87;;;10.03;;
10144;SDS011;5113;41.822;23.564;2023-04-03T00:48:38;13.67;;;8.77;;
10144;SDS011;5113;41.822;23.564;2023-04-03T00:51:47;10.97;;;6.67;;
10144;SDS011;5113;41.822;23.564;2023-04-03T00:54:54;7.33;;;5.20;;
10144;SDS011;5113;41.822;23.564;2023-04-03T00:58:02;10.60;;;6.07;;
10144;SDS011;5113;41.822;23.564;2023-04-03T01:01:13;9.80;;;5.67;;
10144;SDS011;5113;41.822;23.564;2023-04-03T01:04:27;8.80;;;5.23;;
10144;SDS011;5113;41.822;23.564;2023-04-03T01:07:35;9.97;;;6.50;;
10144;SDS011;5113;41.822;23.564;2023-04-03T01:10:42;8.97;;;4.87;;
10144;SDS011;5113;41.822;23.564;2023-04-03T01:13:49;8.93;;;5.47;;
10144;SDS011;5113;41.822;23.564;2023-04-03T01:16:57;8.10;;;5.00;;
10144;SDS011;5113;41.822;23.564;2023-04-03T01:23:57;6.57;;;5.00;;
10144;SDS011;5113;41.822;23.564;2023-04-03T01:27:11;7.97;;;5.40;;
10144;SDS011;5113;41.822;23.564;2023-04-03T01:30:18;8.90;;;5.50;;
10144;SDS011;5113;41.822;23.564;2023-04-03T01:33:29;8.27;;;5.47;;
10144;SDS011;5113;41.822;23.564;2023-04-03T01:36:35;8.87;;;5.90;;
10144;SDS011;5113;41.822;23.564;2023-04-03T01:39:41;10.20;;;5.57;;
10144;SDS011;5113;41.822;23.564;2023-04-03T01:42:47;9.67;;;5.47;;
10144;SDS011;5113;41.822;23.564;2023-04-03T01:45:53;8.53;;;5.63;;
10144;SDS011;5113;41.822;23.564;2023-04-03T01:49:01;10.17;;;5.63;;
10144;SDS011;5113;41.822;23.564;2023-04-03T01:52:08;7.23;;;5.50;;
10144;SDS011;5113;41.822;23.564;2023-04-03T01:55:14;9.00;;;5.70;;
10144;SDS011;5113;41.822;23.564;2023-04-03T01:58:21;10.63;;;5.73;;
10144;SDS011;5113;41.822;23.564;2023-04-03T02:01:27;9.63;;;6.37;;
10144;SDS011;5113;41.822;23.564;2023-04-03T02:04:35;9.07;;;5.63;;
10144;SDS011;5113;41.822;23.564;2023-04-03T02:07:41;5.37;;;4.80;;
10144;SDS011;5113;41.822;23.564;2023-04-03T02:10:47;11.77;;;5.63;;
10144;SDS011;5113;41.822;23.564;2023-04-03T02:13:54;10.43;;;5.73;;
10144;SDS011;5113;41.822;23.564;2023-04-03T02:17:01;8.57;;;6.50;;
10144;SDS011;5113;41.822;23.564;2023-04-03T02:20:14;7.53;;;5.50;;
10144;SDS011;5113;41.822;23.564;2023-04-03T02:23:20;13.93;;;6.67;;
10144;SDS011;5113;41.822;23.564;2023-04-03T02:26:26;7.20;;;5.93;;
10144;SDS011;5113;41.822;23.564;2023-04-03T02:29:33;12.17;;;6.43;;
10144;SDS011;5113;41.822;23.564;2023-04-03T02:32:39;15.53;;;8.20;;
10144;SDS011;5113;41.822;23.564;2023-04-03T02:35:47;15.43;;;8.60;;
10144;SDS011;5113;41.822;23.564;2023-04-03T02:38:59;15.30;;;8.40;;
10144;SDS011;5113;41.822;23.564;2023-04-03T02:42:06;9.47;;;5.57;;
10144;SDS011;5113;41.822;23.564;2023-04-03T02:45:12;8.77;;;6.00;;
10144;SDS011;5113;41.822;23.564;2023-04-03T02:48:19;8.43;;;6.00;;
10144;SDS011;5113;41.822;23.564;2023-04-03T02:51:26;15.07;;;6.63;;
10144;SDS011;5113;41.822;23.564;2023-04-03T02:54:32;8.60;;;5.43;;
10144;SDS011;5113;41.822;23.564;2023-04-03T02:57:41;11.93;;;6.87;;
10144;SDS011;5113;41.822;23.564;2023-04-03T03:00:48;10.13;;;6.17;;
10144;SDS011;5113;41.822;23.564;2023-04-03T03:03:54;7.17;;;5.73;;
10144;SDS011;5113;41.822;23.564;2023-04-03T03:07:01;8.90;;;5.80;;
10144;SDS011;5113;41.822;23.564;2023-04-03T03:10:08;6.13;;;5.47;;
10144;SDS011;5113;41.822;23.564;2023-04-03T03:13:14;8.97;;;5.93;;
10144;SDS011;5113;41.822;23.564;2023-04-03T03:16:20;10.03;;;6.90;;
10144;SDS011;5113;41.822;23.564;2023-04-03T03:19:27;12.57;;;7.93;;
10144;SDS011;5113;41.822;23.564;2023-04-03T03:22:35;12.97;;;7.93;;
10144;SDS011;5113;41.822;23.564;2023-04-03T03:25:41;13.83;;;8.80;;
10144;SDS011;5113;41.822;23.564;2023-04-03T03:28:47;16.10;;;10.93;;
10144;SDS011;5113;41.822;23.564;2023-04-03T03:31:53;17.30;;;11.37;;
10144;SDS011;5113;41.822;23.564;2023-04-03T03:35:00;21.10;;;12.70;;
10144;SDS011;5113;41.822;23.564;2023-04-03T03:38:07;13.00;;;8.70;;
10144;SDS011;5113;41.822;23.564;2023-04-03T03:41:14;19.23;;;10.40;;
10144;SDS011;5113;41.822;23.564;2023-04-03T03:44:20;10.40;;;8.60;;
10144;SDS011;5113;41.822;23.564;2023-04-03T03:47:27;10.30;;;6.90;;
10144;SDS011;5113;41.822;23.564;2023-04-03T03:50:33;11.33;;;8.17;;
10144;SDS011;5113;41.822;23.564;2023-04-03T03:53:41;9.57;;;7.10;;
10144;SDS011;5113;41.822;23.564;2023-04-03T03:56:47;13.77;;;9.67;;
10144;SDS011;5113;41.822;23.564;2023-04-03T03:59:54;19.67;;;12.83;;
10144;SDS011;5113;41.822;23.564;2023-04-03T04:03:00;45.37;;;24.93;;
10144;SDS011;5113;41.822;23.564;2023-04-03T04:06:07;37.87;;;20.97;;
10144;SDS011;5113;41.822;23.564;2023-04-03T04:09:15;34.67;;;19.90;;
10144;SDS011;5113;41.822;23.564;2023-04-03T04:12:21;30.30;;;19.40;;
10144;SDS011;5113;41.822;23.564;2023-04-03T04:15:27;35.00;;;25.03;;
10144;SDS011;5113;41.822;23.564;2023-04-03T04:18:33;33.83;;;20.53;;
10144;SDS011;5113;41.822;23.564;2023-04-03T04:21:39;30.67;;;21.60;;
10144;SDS011;5113;41.822;23.564;2023-04-03T04:24:47;34.67;;;21.30;;
10144;SDS011;5113;41.822;23.564;2023-04-03T04:27:53;37.63;;;23.37;;
10144;SDS011;5113;41.822;23.564;2023-04-03T04:30:59;47.00;;;25.93;;
10144;SDS011;5113;41.822;23.564;2023-04-03T04:34:06;29.90;;;17.37;;
10144;SDS011;5113;41.822;23.564;2023-04-03T04:37:12;44.33;;;25.93;;
10144;SDS011;5113;41.822;23.564;2023-04-03T04:40:20;46.73;;;25.80;;
10144;SDS011;5113;41.822;23.564;2023-04-03T04:43:27;58.37;;;31.33;;
10144;SDS011;5113;41.822;23.564;2023-04-03T04:46:33;30.93;;;21.50;;
10144;SDS011;5113;41.822;23.564;2023-04-03T04:53:05;19.63;;;11.60;;
10144;SDS011;5113;41.822;23.564;2023-04-03T04:56:13;41.97;;;24.77;;
10144;SDS011;5113;41.822;23.564;2023-04-03T04:59:19;39.57;;;25.97;;
10144;SDS011;5113;41.822;23.564;2023-04-03T05:02:25;32.77;;;21.13;;
10144;SDS011;5113;41.822;23.564;2023-04-03T05:05:32;26.53;;;19.00;;
10144;SDS011;5113;41.822;23.564;2023-04-03T05:08:38;31.33;;;22.37;;
10144;SDS011;5113;41.822;23.564;2023-04-03T05:11:46;54.10;;;36.43;;
10144;SDS011;5113;41.822;23.564;2023-04-03T05:14:52;31.60;;;21.87;;
10144;SDS011;5113;41.822;23.564;2023-04-03T05:17:59;38.00;;;21.50;;
10144;SDS011;5113;41.822;23.564;2023-04-03T05:21:05;45.57;;;24.70;;
10144;SDS011;5113;41.822;23.564;2023-04-03T05:24:11;71.77;;;33.57;;
10144;SDS011;5113;41.822;23.564;2023-04-03T05:27:19;91.67;;;42.57;;
10144;SDS011;5113;41.822;23.564;2023-04-03T05:30:25;58.43;;;33.70;;
10144;SDS011;5113;41.822;23.564;2023-04-03T05:33:31;69.17;;;34.40;;
10144;SDS011;5113;41.822;23.564;2023-04-03T05:36:37;55.23;;;25.77;;
10144;SDS011;5113;41.822;23.564;2023-04-03T05:39:44;68.10;;;30.57;;
10144;SDS011;5113;41.822;23.564;2023-04-03T05:42:51;51.47;;;23.60;;
10144;SDS011;5113;41.822;23.564;2023-04-03T05:45:58;44.60;;;23.07;;
10144;SDS011;5113;41.822;23.564;2023-04-03T05:49:04;38.77;;;22.30;;
10144;SDS011;5113;41.822;23.564;2023-04-03T05:52:12;33.17;;;19.63;;
10144;SDS011;5113;41.822;23.564;2023-04-03T05:55:26;28.87;;;17.20;;
10144;SDS011;5113;41.822;23.564;2023-04-03T05:58:33;30.90;;;18.10;;
10144;SDS011;5113;41.822;23.564;2023-04-03T06:01:40;187.80;;;84.80;;
10144;SDS011;5113;41.822;23.564;2023-04-03T06:04:46;192.07;;;102.80;;
10144;SDS011;5113;41.822;23.564;2023-04-03T06:07:53;197.07;;;99.73;;
10144;SDS011;5113;41.822;23.564;2023-04-03T06:11:00;56.40;;;31.27;;
10144;SDS011;5113;41.822;23.564;2023-04-03T06:14:08;41.20;;;26.87;;
10144;SDS011;5113;41.822;23.564;2023-04-03T06:17:14;42.97;;;28.83;;
10144;SDS011;5113;41.822;23.564;2023-04-03T06:20:22;36.73;;;21.67;;
10144;SDS011;5113;41.822;23.564;2023-04-03T06:23:29;32.57;;;20.43;;
10144;SDS011;5113;41.822;23.564;2023-04-03T06:26:35;38.60;;;23.93;;
10144;SDS011;5113;41.822;23.564;2023-04-03T06:29:42;49.20;;;25.90;;
10144;SDS011;5113;41.822;23.564;2023-04-03T06:32:49;50.63;;;26.10;;
10144;SDS011;5113;41.822;23.564;2023-04-03T06:35:58;34.63;;;21.23;;
10144;SDS011;5113;41.822;23.564;2023-04-03T06:39:05;38.83;;;23.07;;
10144;SDS011;5113;41.822;23.564;2023-04-03T06:42:11;57.83;;;33.60;;
10144;SDS011;5113;41.822;23.564;2023-04-03T06:45:19;55.33;;;32.60;;
10144;SDS011;5113;41.822;23.564;2023-04-03T06:48:26;44.50;;;25.70;;
10144;SDS011;5113;41.822;23.564;2023-04-03T06:51:32;31.47;;;20.37;;
10144;SDS011;5113;41.822;23.564;2023-04-03T06:54:38;34.10;;;19.47;;
10144;SDS011;5113;41.822;23.564;2023-04-03T06:57:45;52.97;;;29.37;;
10144;SDS011;5113;41.822;23.564;2023-04-03T07:00:53;57.50;;;30.70;;
10144;SDS011;5113;41.822;23.564;2023-04-03T07:03:59;55.30;;;30.07;;
10144;SDS011;5113;41.822;23.564;2023-04-03T07:07:05;60.03;;;30.80;;
10144;SDS011;5113;41.822;23.564;2023-04-03T07:10:11;59.10;;;31.97;;
10144;SDS011;5113;41.822;23.564;2023-04-03T07:13:18;50.57;;;27.33;;
10144;SDS011;5113;41.822;23.564;2023-04-03T07:16:25;41.87;;;23.23;;
10144;SDS011;5113;41.822;23.564;2023-04-03T07:19:31;41.57;;;21.50;;
10144;SDS011;5113;41.822;23.564;2023-04-03T07:22:37;25.70;;;17.83;;
10144;SDS011;5113;41.822;23.564;2023-04-03T07:25:43;25.70;;;15.07;;
10144;SDS011;5113;41.822;23.564;2023-04-03T07:28:50;22.83;;;15.40;;
10144;SDS011;5113;41.822;23.564;2023-04-03T07:31:58;35.87;;;21.70;;
10144;SDS011;5113;41.822;23.564;2023-04-03T07:35:05;34.10;;;19.87;;
10144;SDS011;5113;41.822;23.564;2023-04-03T07:38:11;30.03;;;18.07;;
10144;SDS011;5113;41.822;23.564;2023-04-03T07:41:18;35.53;;;22.87;;
10144;SDS011;5113;41.822;23.564;2023-04-03T07:44:27;32.03;;;20.07;;
10144;SDS011;5113;41.822;23.564;2023-04-03T07:47:35;50.80;;;29.90;;
10144;SDS011;5113;41.822;23.564;2023-04-03T07:50:41;58.30;;;33.10;;
10144;SDS011;5113;41.822;23.564;2023-04-03T07:53:48;56.57;;;29.60;;
10144;SDS011;5113;41.822;23.564;2023-04-03T07:56:55;50.00;;;32.20;;
10144;SDS011;5113;41.822;23.564;2023-04-03T08:00:02;59.00;;;31.77;;
10144;SDS011;5113;41.822;23.564;2023-04-03T08:03:11;51.47;;;28.33;;
10144;SDS011;5113;41.822;23.564;2023-04-03T08:06:18;51.10;;;28.23;;
10144;SDS011;5113;41.822;23.564;2023-04-03T08:09:32;50.80;;;28.13;;
10144;SDS011;5113;41.822;23.564;2023-04-03T08:12:39;47.50;;;25.50;;
10144;SDS011;5113;41.822;23.564;2023-04-03T08:15:45;24.93;;;13.70;;
10144;SDS011;5113;41.822;23.564;2023-04-03T08:18:53;28.17;;;16.23;;
10144;SDS011;5113;41.822;23.564;2023-04-03T08:22:00;16.90;;;10.70;;
10144;SDS011;5113;41.822;23.564;2023-04-03T08:25:08;17.53;;;9.47;;
10144;SDS011;5113;41.822;23.564;2023-04-03T08:28:15;18.13;;;10.83;;
10144;SDS011;5113;41.822;23.564;2023-04-03T08:31:21;21.07;;;12.20;;
10144;SDS011;5113;41.822;23.564;2023-04-03T08:34:29;23.37;;;15.33;;
10144;SDS011;5113;41.822;23.564;2023-04-03T08:37:35;23.30;;;14.80;;
10144;SDS011;5113;41.822;23.564;2023-04-03T08:40:42;18.23;;;11.73;;
10144;SDS011;5113;41.822;23.564;2023-04-03T08:43:56;21.57;;;13.40;;
10144;SDS011;5113;41.822;23.564;2023-04-03T08:47:11;17.83;;;13.93;;
10144;SDS011;5113;41.822;23.564;2023-04-03T08:50:31;22.47;;;14.93;;
10144;SDS011;5113;41.822;23.564;2023-04-03T08:53:43;15.17;;;9.73;;
10144;SDS011;5113;41.822;23.564;2023-04-03T08:56:54;17.67;;;11.93;;
10144;SDS011;5113;41.822;23.564;2023-04-03T09:00:03;27.13;;;15.67;;
10144;SDS011;5113;41.822;23.564;2023-04-03T09:03:13;29.50;;;18.40;;
10144;SDS011;5113;41.822;23.564;2023-04-03T09:06:23;24.33;;;14.80;;
10144;SDS011;5113;41.822;23.564;2023-04-03T09:09:35;19.03;;;12.17;;
10144;SDS011;5113;41.822;23.564;2023-04-03T09:12:46;29.00;;;17.17;;
10144;SDS011;5113;41.822;23.564;2023-04-03T09:15:59;24.30;;;14.57;;
10144;SDS011;5113;41.822;23.564;2023-04-03T09:19:12;23.00;;;14.23;;
10144;SDS011;5113;41.822;23.564;2023-04-03T09:22:27;22.80;;;15.50;;
10144;SDS011;5113;41.822;23.564;2023-04-03T09:25:42;30.90;;;20.23;;
10144;SDS011;5113;41.822;23.564;2023-04-03T09:28:49;30.40;;;18.80;;
10144;SDS011;5113;41.822;23.564;2023-04-03T09:31:56;33.40;;;20.63;;
10144;SDS011;5113;41.822;23.564;2023-04-03T09:35:13;25.53;;;18.33;;
10144;SDS011;5113;41.822;23.564;2023-04-03T09:38:37;34.20;;;21.10;;
10144;SDS011;5113;41.822;23.564;2023-04-03T09:41:55;28.63;;;17.77;;
10144;SDS011;5113;41.822;23.564;2023-04-03T09:45:04;27.30;;;17.60;;
10144;SDS011;5113;41.822;23.564;2023-04-03T09:48:15;41.10;;;23.50;;
10144;SDS011;5113;41.822;23.564;2023-04-03T09:51:24;65.23;;;36.70;;
10144;SDS011;5113;41.822;23.564;2023-04-03T09:54:35;38.83;;;23.90;;
10144;SDS011;5113;41.822;23.564;2023-04-03T09:57:45;40.77;;;22.87;;
10144;SDS011;5113;41.822;23.564;2023-04-03T10:00:57;40.23;;;26.43;;
10144;SDS011;5113;41.822;23.564;2023-04-03T10:04:09;35.43;;;24.03;;
10144;SDS011;5113;41.822;23.564;2023-04-03T10:07:26;35.73;;;22.73;;
10144;SDS011;5113;41.822;23.564;2023-04-03T10:10:36;31.40;;;20.10;;
10144;SDS011;5113;41.822;23.564;2023-04-03T10:13:51;24.23;;;18.40;;
10144;SDS011;5113;41.822;23.564;2023-04-03T10:17:02;25.23;;;17.57;;
10144;SDS011;5113;41.822;23.564;2023-04-03T10:20:23;22.17;;;15.93;;
10144;SDS011;5113;41.822;23.564;2023-04-03T10:23:37;16.67;;;13.00;;
10144;SDS011;5113;41.822;23.564;2023-04-03T10:26:52;10.90;;;9.23;;
10144;SDS011;5113;41.822;23.564;2023-04-03T10:30:08;15.90;;;11.03;;
10144;SDS011;5113;41.822;23.564;2023-04-03T10:33:29;24.20;;;14.40;;
10144;SDS011;5113;41.822;23.564;2023-04-03T10:36:43;22.13;;;13.37;;
10144;SDS011;5113;41.822;23.564;2023-04-03T10:39:57;13.73;;;9.87;;
10144;SDS011;5113;41.822;23.564;2023-04-03T10:43:09;21.93;;;12.80;;
10144;SDS011;5113;41.822;23.564;2023-04-03T10:46:22;23.80;;;12.50;;
10144;SDS011;5113;41.822;23.564;2023-04-03T10:49:38;11.80;;;9.13;;
10144;SDS011;5113;41.822;23.564;2023-04-03T10:53:04;22.03;;;12.13;;
10144;SDS011;5113;41.822;23.564;2023-04-03T10:56:19;12.27;;;9.00;;
10144;SDS011;5113;41.822;23.564;2023-04-03T10:59:33;23.83;;;15.20;;
10144;SDS011;5113;41.822;23.564;2023-04-03T11:02:44;43.43;;;24.27;;
10144;SDS011;5113;41.822;23.564;2023-04-03T11:05:56;27.77;;;17.90;;
10144;SDS011;5113;41.822;23.564;2023-04-03T11:09:07;22.33;;;13.23;;
10144;SDS011;5113;41.822;23.564;2023-04-03T11:12:26;12.53;;;8.87;;
10144;SDS011;5113;41.822;23.564;2023-04-03T11:15:41;10.70;;;7.57;;
10144;SDS011;5113;41.822;23.564;2023-04-03T11:18:49;19.53;;;11.13;;
10144;SDS011;5113;41.822;23.564;2023-04-03T11:22:00;48.90;;;21.90;;
10144;SDS011;5113;41.822;23.564;2023-04-03T11:25:14;78.37;;;35.93;;
10144;SDS011;5113;41.822;23.564;2023-04-03T11:28:26;56.37;;;30.80;;
10144;SDS011;5113;41.822;23.564;2023-04-03T11:31:45;70.33;;;35.93;;
10144;SDS011;5113;41.822;23.564;2023-04-03T11:35:07;59.43;;;33.37;;
10144;SDS011;5113;41.822;23.564;2023-04-03T11:38:17;44.33;;;24.80;;
10144;SDS011;5113;41.822;23.564;2023-04-03T11:41:29;38.83;;;23.33;;
10144;SDS011;5113;41.822;23.564;2023-04-03T11:44:37;39.23;;;22.87;;
10144;SDS011;5113;41.822;23.564;2023-04-03T11:47:46;14.63;;;9.43;;
10144;SDS011;5113;41.822;23.564;2023-04-03T11:50:55;12.37;;;9.10;;
10144;SDS011;5113;41.822;23.564;2023-04-03T11:58:02;33.07;;;18.33;;
10144;SDS011;5113;41.822;23.564;2023-04-03T12:08:42;70.87;;;35.13;;
10144;SDS011;5113;41.822;23.564;2023-04-03T12:11:51;81.70;;;44.70;;
10144;SDS011;5113;41.822;23.564;2023-04-03T12:15:11;68.87;;;35.33;;
10144;SDS011;5113;41.822;23.564;2023-04-03T12:22:11;49.00;;;27.03;;
10144;SDS011;5113;41.822;23.564;2023-04-03T12:28:55;39.97;;;22.30;;
10144;SDS011;5113;41.822;23.564;2023-04-03T12:32:06;30.37;;;19.20;;
10144;SDS011;5113;41.822;23.564;2023-04-03T12:35:21;40.40;;;24.07;;
10144;SDS011;5113;41.822;23.564;2023-04-03T12:42:29;25.50;;;15.67;;
10144;SDS011;5113;41.822;23.564;2023-04-03T12:45:47;98.00;;;36.57;;
10144;SDS011;5113;41.822;23.564;2023-04-03T12:48:59;35.87;;;20.37;;
10144;SDS011;5113;41.822;23.564;2023-04-03T12:52:06;41.13;;;25.33;;
10144;SDS011;5113;41.822;23.564;2023-04-03T12:55:25;29.53;;;17.00;;
10144;SDS011;5113;41.822;23.564;2023-04-03T12:58:33;26.47;;;19.33;;
10144;SDS011;5113;41.822;23.564;2023-04-03T13:01:39;48.83;;;25.60;;
10144;SDS011;5113;41.822;23.564;2023-04-03T13:04:46;40.33;;;22.70;;
10144;SDS011;5113;41.822;23.564;2023-04-03T13:07:57;34.47;;;19.50;;
10144;SDS011;5113;41.822;23.564;2023-04-03T13:11:08;203.20;;;111.03;;
10144;SDS011;5113;41.822;23.564;2023-04-03T13:14:19;63.40;;;33.97;;
10144;SDS011;5113;41.822;23.564;2023-04-03T13:17:27;32.53;;;20.53;;
10144;SDS011;5113;41.822;23.564;2023-04-03T13:20:34;34.40;;;19.70;;
10144;SDS011;5113;41.822;23.564;2023-04-03T13:23:43;40.70;;;24.07;;
10144;SDS011;5113;41.822;23.564;2023-04-03T13:26:56;34.57;;;20.70;;
10144;SDS011;5113;41.822;23.564;2023-04-03T13:30:05;48.80;;;27.33;;
10144;SDS011;5113;41.822;23.564;2023-04-03T13:33:19;36.03;;;23.03;;
10144;SDS011;5113;41.822;23.564;2023-04-03T13:36:29;38.17;;;23.37;;
10144;SDS011;5113;41.822;23.564;2023-04-03T13:39:38;27.47;;;17.77;;
10144;SDS011;5113;41.822;23.564;2023-04-03T13:42:45;46.33;;;24.20;;
10144;SDS011;5113;41.822;23.564;2023-04-03T13:45:56;58.63;;;35.87;;
10144;SDS011;5113;41.822;23.564;2023-04-03T13:49:16;69.67;;;39.03;;
10144;SDS011;5113;41.822;23.564;2023-04-03T13:52:26;44.27;;;26.97;;
10144;SDS011;5113;41.822;23.564;2023-04-03T13:55:36;49.00;;;28.77;;
10144;SDS011;5113;41.822;23.564;2023-04-03T13:58:59;52.20;;;29.23;;
10144;SDS011;5113;41.822;23.564;2023-04-03T14:02:15;41.30;;;25.00;;
10144;SDS011;5113;41.822;23.564;2023-04-03T14:05:24;60.10;;;31.70;;
10144;SDS011;5113;41.822;23.564;2023-04-03T14:08:31;47.23;;;28.57;;
10144;SDS011;5113;41.822;23.564;2023-04-03T14:11:48;29.97;;;19.87;;
10144;SDS011;5113;41.822;23.564;2023-04-03T14:14:58;40.50;;;25.27;;
10144;SDS011;5113;41.822;23.564;2023-04-03T14:18:09;34.90;;;23.23;;
10144;SDS011;5113;41.822;23.564;2023-04-03T14:21:17;60.93;;;34.47;;
10144;SDS011;5113;41.822;23.564;2023-04-03T14:24:25;53.03;;;27.47;;
10144;SDS011;5113;41.822;23.564;2023-04-03T14:27:33;48.80;;;24.07;;
10144;SDS011;5113;41.822;23.564;2023-04-03T14:30:41;151.07;;;65.67;;
10144;SDS011;5113;41.822;23.564;2023-04-03T14:33:49;69.60;;;34.77;;
10144;SDS011;5113;41.822;23.564;2023-04-03T14:36:56;67.77;;;34.97;;
10144;SDS011;5113;41.822;23.564;2023-04-03T14:40:02;76.47;;;40.50;;
10144;SDS011;5113;41.822;23.564;2023-04-03T14:43:11;95.57;;;53.80;;
10144;SDS011;5113;41.822;23.564;2023-04-03T14:46:19;89.53;;;47.13;;
10144;SDS011;5113;41.822;23.564;2023-04-03T14:49:37;87.53;;;49.63;;
10144;SDS011;5113;41.822;23.564;2023-04-03T14:52:43;114.90;;;61.13;;
10144;SDS011;5113;41.822;23.564;2023-04-03T14:55:51;106.30;;;52.47;;
10144;SDS011;5113;41.822;23.564;2023-04-03T14:58:58;85.87;;;43.17;;
10144;SDS011;5113;41.822;23.564;2023-04-03T15:02:11;64.00;;;34.97;;
10144;SDS011;5113;41.822;23.564;2023-04-03T15:05:36;50.70;;;27.77;;
10144;SDS011;5113;41.822;23.564;2023-04-03T15:08:42;50.73;;;29.57;;
10144;SDS011;5113;41.822;23.564;2023-04-03T15:11:51;69.57;;;32.40;;
10144;SDS011;5113;41.822;23.564;2023-04-03T15:14:59;81.87;;;40.17;;
10144;SDS011;5113;41.822;23.564;2023-04-03T15:18:09;56.33;;;29.03;;
10144;SDS011;5113;41.822;23.564;2023-04-03T15:21:21;61.97;;;36.50;;
10144;SDS011;5113;41.822;23.564;2023-04-03T15:24:27;84.27;;;44.37;;
10144;SDS011;5113;41.822;23.564;2023-04-03T15:27:34;122.27;;;58.47;;
10144;SDS011;5113;41.822;23.564;2023-04-03T15:30:40;102.90;;;56.37;;
10144;SDS011;5113;41.822;23.564;2023-04-03T15:33:47;68.93;;;38.23;;
10144;SDS011;5113;41.822;23.564;2023-04-03T15:36:54;63.97;;;30.53;;
10144;SDS011;5113;41.822;23.564;2023-04-03T15:40:01;54.30;;;31.23;;
10144;SDS011;5113;41.822;23.564;2023-04-03T15:43:08;34.23;;;21.07;;
10144;SDS011;5113;41.822;23.564;2023-04-03T15:46:15;36.13;;;18.10;;
10144;SDS011;5113;41.822;23.564;2023-04-03T15:49:22;41.57;;;24.40;;
10144;SDS011;5113;41.822;23.564;2023-04-03T15:52:29;52.03;;;29.97;;
10144;SDS011;5113;41.822;23.564;2023-04-03T15:55:36;70.73;;;33.83;;
10144;SDS011;5113;41.822;23.564;2023-04-03T15:58:43;76.47;;;37.23;;
10144;SDS011;5113;41.822;23.564;2023-04-03T16:01:50;78.53;;;39.07;;
10144;SDS011;5113;41.822;23.564;2023-04-03T16:04:57;115.37;;;56.87;;
10144;SDS011;5113;41.822;23.564;2023-04-03T16:08:04;102.60;;;48.67;;
10144;SDS011;5113;41.822;23.564;2023-04-03T16:11:12;90.57;;;43.90;;
10144;SDS011;5113;41.822;23.564;2023-04-03T16:14:18;97.30;;;49.07;;
10144;SDS011;5113;41.822;23.564;2023-04-03T16:17:25;122.93;;;58.83;;
10144;SDS011;5113;41.822;23.564;2023-04-03T16:20:33;135.90;;;62.03;;
10144;SDS011;5113;41.822;23.564;2023-04-03T16:23:42;116.47;;;56.80;;
10144;SDS011;5113;41.822;23.564;2023-04-03T16:26:49;127.83;;;60.70;;
10144;SDS011;5113;41.822;23.564;2023-04-03T16:29:55;80.40;;;41.07;;
10144;SDS011;5113;41.822;23.564;2023-04-03T16:33:02;135.30;;;62.23;;
10144;SDS011;5113;41.822;23.564;2023-04-03T16:36:08;89.00;;;44.63;;
10144;SDS011;5113;41.822;23.564;2023-04-03T16:39:16;105.27;;;47.00;;
10144;SDS011;5113;41.822;23.564;2023-04-03T16:42:23;99.43;;;51.40;;
10144;SDS011;5113;41.822;23.564;2023-04-03T16:45:29;73.70;;;35.37;;
10144;SDS011;5113;41.822;23.564;2023-04-03T16:48:35;83.13;;;32.13;;
10144;SDS011;5113;41.822;23.564;2023-04-03T16:51:42;78.67;;;36.13;;
10144;SDS011;5113;41.822;23.564;2023-04-03T16:54:50;105.20;;;47.60;;
10144;SDS011;5113;41.822;23.564;2023-04-03T16:58:00;94.03;;;47.27;;
10144;SDS011;5113;41.822;23.564;2023-04-03T17:01:10;85.63;;;46.33;;
10144;SDS011;5113;41.822;23.564;2023-04-03T17:04:17;101.70;;;54.23;;
10144;SDS011;5113;41.822;23.564;2023-04-03T17:07:24;64.87;;;35.83;;
10144;SDS011;5113;41.822;23.564;2023-04-03T17:10:33;54.73;;;30.37;;
10144;SDS011;5113;41.822;23.564;2023-04-03T17:13:40;58.17;;;30.43;;
10144;SDS011;5113;41.822;23.564;2023-04-03T17:16:46;53.53;;;30.23;;
10144;SDS011;5113;41.822;23.564;2023-04-03T17:19:53;74.87;;;41.17;;
10144;SDS011;5113;41.822;23.564;2023-04-03T17:23:00;68.93;;;38.13;;
10144;SDS011;5113;41.822;23.564;2023-04-03T17:26:08;63.00;;;33.57;;
10144;SDS011;5113;41.822;23.564;2023-04-03T17:29:14;52.40;;;29.10;;
10144;SDS011;5113;41.822;23.564;2023-04-03T17:32:21;100.37;;;53.03;;
10144;SDS011;5113;41.822;23.564;2023-04-03T17:35:30;68.47;;;37.53;;
10144;SDS011;5113;41.822;23.564;2023-04-03T17:38:36;80.07;;;42.17;;
10144;SDS011;5113;41.822;23.564;2023-04-03T17:41:44;94.67;;;43.80;;
10144;SDS011;5113;41.822;23.564;2023-04-03T17:44:51;52.23;;;27.43;;
10144;SDS011;5113;41.822;23.564;2023-04-03T17:47:57;63.73;;;32.10;;
10144;SDS011;5113;41.822;23.564;2023-04-03T17:51:04;37.87;;;20.77;;
10144;SDS011;5113;41.822;23.564;2023-04-03T17:54:11;24.60;;;14.50;;
10144;SDS011;5113;41.822;23.564;2023-04-03T17:57:19;32.13;;;18.77;;
10144;SDS011;5113;41.822;23.564;2023-04-03T18:00:26;88.43;;;47.63;;
10144;SDS011;5113;41.822;23.564;2023-04-03T18:03:32;53.40;;;29.70;;
10144;SDS011;5113;41.822;23.564;2023-04-03T18:06:39;41.40;;;22.40;;
10144;SDS011;5113;41.822;23.564;2023-04-03T18:09:49;65.93;;;31.83;;
10144;SDS011;5113;41.822;23.564;2023-04-03T18:12:58;65.57;;;37.40;;
10144;SDS011;5113;41.822;23.564;2023-04-03T18:16:05;78.13;;;39.87;;
10144;SDS011;5113;41.822;23.564;2023-04-03T18:19:13;107.30;;;53.73;;
10144;SDS011;5113;41.822;23.564;2023-04-03T18:22:22;73.90;;;38.23;;
10144;SDS011;5113;41.822;23.564;2023-04-03T18:25:30;35.33;;;23.33;;
10144;SDS011;5113;41.822;23.564;2023-04-03T18:28:43;33.87;;;19.47;;
10144;SDS011;5113;41.822;23.564;2023-04-03T18:31:53;65.40;;;33.80;;
10144;SDS011;5113;41.822;23.564;2023-04-03T18:35:01;49.47;;;27.93;;
10144;SDS011;5113;41.822;23.564;2023-04-03T18:38:07;35.70;;;20.07;;
10144;SDS011;5113;41.822;23.564;2023-04-03T18:41:13;31.93;;;15.60;;
10144;SDS011;5113;41.822;23.564;2023-04-03T18:44:21;23.60;;;12.37;;
10144;SDS011;5113;41.822;23.564;2023-04-03T18:47:29;21.93;;;9.47;;
10144;SDS011;5113;41.822;23.564;2023-04-03T18:50:36;15.90;;;9.33;;
10144;SDS011;5113;41.822;23.564;2023-04-03T18:53:42;27.13;;;13.47;;
10144;SDS011;5113;41.822;23.564;2023-04-03T18:56:49;45.80;;;22.97;;
10144;SDS011;5113;41.822;23.564;2023-04-03T18:59:56;36.60;;;18.70;;